sensor_id;sensor_type;location;lat;lon;timestamp;P1;durP1;ratioP1;P2;durP2;ratioP2
57858;SDS011;49153;45.568;11.894;2022-07-17T00:01:58;10.38;;;7.07;;
57858;SDS011;49153;45.568;11.894;2022-07-17T00:04:24;9.07;;;7.55;;
57858;SDS011;49153;45.568;11.894;2022-07-17T00:06:49;7.72;;;6.45;;
57858;SDS011;49153;45.568;11.894;2022-07-17T00:09:15;10.57;;;7.00;;
57858;SDS011;49153;45.568;11.894;2022-07-17T00:11:41;7.72;;;6.93;;
57858;SDS011;49153;45.568;11.894;2022-07-17T00:14:06;10.85;;;7.50;;
57858;SDS011;49153;45.568;11.894;2022-07-17T00:16:32;9.65;;;7.45;;
57858;SDS011;49153;45.568;11.894;2022-07-17T00:18:57;7.53;;;6.13;;
57858;SDS011;49153;45.568;11.894;2022-07-17T00:21:23;7.78;;;6.90;;
57858;SDS011;49153;45.568;11.894;2022-07-17T00:23:50;8.15;;;6.30;;
57858;SDS011;49153;45.568;11.894;2022-07-17T00:26:15;7.38;;;6.35;;
57858;SDS011;49153;45.568;11.894;2022-07-17T00:28:41;8.18;;;7.38;;
57858;SDS011;49153;45.568;11.894;2022-07-17T00:31:06;11.43;;;6.78;;
57858;SDS011;49153;45.568;11.894;2022-07-17T00:33:35;7.78;;;6.90;;
57858;SDS011;49153;45.568;11.894;2022-07-17T00:36:02;9.05;;;7.15;;
57858;SDS011;49153;45.568;11.894;2022-07-17T00:38:28;7.72;;;6.95;;
57858;SDS011;49153;45.568;11.894;2022-07-17T00:40:54;7.93;;;6.85;;
57858;SDS011;49153;45.568;11.894;2022-07-17T00:43:21;8.38;;;7.60;;
57858;SDS011;49153;45.568;11.894;2022-07-17T00:45:53;7.90;;;7.13;;
57858;SDS011;49153;45.568;11.894;2022-07-17T00:48:20;8.77;;;7.65;;
57858;SDS011;49153;45.568;11.894;2022-07-17T00:50:45;11.88;;;8.52;;
57858;SDS011;49153;45.568;11.894;2022-07-17T00:53:11;8.30;;;7.30;;
57858;SDS011;49153;45.568;11.894;2022-07-17T00:55:36;12.45;;;8.60;;
57858;SDS011;49153;45.568;11.894;2022-07-17T00:58:04;11.63;;;8.13;;
57858;SDS011;49153;45.568;11.894;2022-07-17T01:00:31;9.63;;;7.40;;
57858;SDS011;49153;45.568;11.894;2022-07-17T01:02:57;8.38;;;7.53;;
57858;SDS011;49153;45.568;11.894;2022-07-17T01:05:23;8.50;;;7.32;;
57858;SDS011;49153;45.568;11.894;2022-07-17T01:07:49;10.18;;;6.97;;
57858;SDS011;49153;45.568;11.894;2022-07-17T01:10:16;8.13;;;6.93;;
57858;SDS011;49153;45.568;11.894;2022-07-17T01:12:42;8.90;;;7.43;;
57858;SDS011;49153;45.568;11.894;2022-07-17T01:15:10;8.07;;;6.95;;
57858;SDS011;49153;45.568;11.894;2022-07-17T01:17:36;8.68;;;6.70;;
57858;SDS011;49153;45.568;11.894;2022-07-17T01:20:24;7.60;;;6.90;;
57858;SDS011;49153;45.568;11.894;2022-07-17T01:22:50;8.88;;;6.90;;
57858;SDS011;49153;45.568;11.894;2022-07-17T01:25:19;7.35;;;6.55;;
57858;SDS011;49153;45.568;11.894;2022-07-17T01:27:48;8.68;;;6.43;;
57858;SDS011;49153;45.568;11.894;2022-07-17T01:30:13;8.20;;;6.90;;
57858;SDS011;49153;45.568;11.894;2022-07-17T01:32:40;7.47;;;6.78;;
57858;SDS011;49153;45.568;11.894;2022-07-17T01:35:07;7.30;;;6.60;;
57858;SDS011;49153;45.568;11.894;2022-07-17T01:37:34;7.13;;;6.45;;
57858;SDS011;49153;45.568;11.894;2022-07-17T01:40:00;7.65;;;6.60;;
57858;SDS011;49153;45.568;11.894;2022-07-17T01:42:26;7.68;;;6.65;;
57858;SDS011;49153;45.568;11.894;2022-07-17T01:44:53;9.88;;;6.70;;
57858;SDS011;49153;45.568;11.894;2022-07-17T01:47:19;7.05;;;6.38;;
57858;SDS011;49153;45.568;11.894;2022-07-17T01:49:46;7.47;;;6.65;;
57858;SDS011;49153;45.568;11.894;2022-07-17T01:54:42;8.48;;;6.25;;
57858;SDS011;49153;45.568;11.894;2022-07-17T01:57:08;6.85;;;6.25;;
57858;SDS011;49153;45.568;11.894;2022-07-17T01:59:35;7.93;;;6.70;;
57858;SDS011;49153;45.568;11.894;2022-07-17T02:02:01;9.40;;;6.32;;
57858;SDS011;49153;45.568;11.894;2022-07-17T02:04:27;6.97;;;6.32;;
57858;SDS011;49153;45.568;11.894;2022-07-17T02:06:53;7.18;;;6.47;;
57858;SDS011;49153;45.568;11.894;2022-07-17T02:09:19;6.72;;;6.10;;
57858;SDS011;49153;45.568;11.894;2022-07-17T02:11:45;6.70;;;6.00;;
57858;SDS011;49153;45.568;11.894;2022-07-17T02:14:11;7.85;;;6.00;;
57858;SDS011;49153;45.568;11.894;2022-07-17T02:16:36;6.65;;;6.05;;
57858;SDS011;49153;45.568;11.894;2022-07-17T02:19:02;8.48;;;5.72;;
57858;SDS011;49153;45.568;11.894;2022-07-17T02:21:27;6.03;;;5.32;;
57858;SDS011;49153;45.568;11.894;2022-07-17T02:23:53;5.78;;;5.28;;
57858;SDS011;49153;45.568;11.894;2022-07-17T02:26:18;6.20;;;5.50;;
57858;SDS011;49153;45.568;11.894;2022-07-17T02:28:44;6.25;;;5.35;;
57858;SDS011;49153;45.568;11.894;2022-07-17T02:31:09;6.20;;;5.47;;
57858;SDS011;49153;45.568;11.894;2022-07-17T02:33:34;6.70;;;5.40;;
57858;SDS011;49153;45.568;11.894;2022-07-17T02:36:00;7.40;;;4.95;;
57858;SDS011;49153;45.568;11.894;2022-07-17T02:38:26;5.80;;;5.25;;
57858;SDS011;49153;45.568;11.894;2022-07-17T02:40:52;5.40;;;4.90;;
57858;SDS011;49153;45.568;11.894;2022-07-17T02:43:18;5.68;;;5.13;;
57858;SDS011;49153;45.568;11.894;2022-07-17T02:45:43;5.70;;;5.10;;
57858;SDS011;49153;45.568;11.894;2022-07-17T02:48:09;5.20;;;4.70;;
57858;SDS011;49153;45.568;11.894;2022-07-17T02:50:34;5.60;;;4.40;;
57858;SDS011;49153;45.568;11.894;2022-07-17T02:53:00;5.07;;;4.57;;
57858;SDS011;49153;45.568;11.894;2022-07-17T02:55:25;4.95;;;4.40;;
57858;SDS011;49153;45.568;11.894;2022-07-17T02:57:51;6.22;;;4.68;;
57858;SDS011;49153;45.568;11.894;2022-07-17T03:00:16;4.32;;;3.78;;
57858;SDS011;49153;45.568;11.894;2022-07-17T03:02:43;5.18;;;4.45;;
57858;SDS011;49153;45.568;11.894;2022-07-17T03:05:10;5.50;;;4.28;;
57858;SDS011;49153;45.568;11.894;2022-07-17T03:07:36;6.60;;;4.00;;
57858;SDS011;49153;45.568;11.894;2022-07-17T03:10:02;4.97;;;4.10;;
57858;SDS011;49153;45.568;11.894;2022-07-17T03:12:28;4.32;;;3.92;;
57858;SDS011;49153;45.568;11.894;2022-07-17T03:14:53;4.40;;;3.92;;
57858;SDS011;49153;45.568;11.894;2022-07-17T03:17:19;4.30;;;3.90;;
57858;SDS011;49153;45.568;11.894;2022-07-17T03:19:44;5.53;;;4.00;;
57858;SDS011;49153;45.568;11.894;2022-07-17T03:22:10;4.35;;;3.85;;
57858;SDS011;49153;45.568;11.894;2022-07-17T03:24:35;4.07;;;3.67;;
57858;SDS011;49153;45.568;11.894;2022-07-17T03:27:00;4.50;;;3.88;;
57858;SDS011;49153;45.568;11.894;2022-07-17T03:29:26;4.40;;;4.00;;
57858;SDS011;49153;45.568;11.894;2022-07-17T03:31:51;4.25;;;3.85;;
57858;SDS011;49153;45.568;11.894;2022-07-17T03:34:17;4.97;;;3.90;;
57858;SDS011;49153;45.568;11.894;2022-07-17T03:36:42;7.25;;;4.18;;
57858;SDS011;49153;45.568;11.894;2022-07-17T03:39:08;4.93;;;4.00;;
57858;SDS011;49153;45.568;11.894;2022-07-17T03:41:34;6.85;;;4.25;;
57858;SDS011;49153;45.568;11.894;2022-07-17T03:43:59;5.82;;;4.05;;
57858;SDS011;49153;45.568;11.894;2022-07-17T03:46:24;5.15;;;4.38;;
57858;SDS011;49153;45.568;11.894;2022-07-17T03:48:50;6.10;;;4.20;;
57858;SDS011;49153;45.568;11.894;2022-07-17T03:51:15;4.50;;;4.00;;
57858;SDS011;49153;45.568;11.894;2022-07-17T03:53:41;4.65;;;3.90;;
57858;SDS011;49153;45.568;11.894;2022-07-17T03:56:07;5.07;;;3.97;;
57858;SDS011;49153;45.568;11.894;2022-07-17T03:58:33;5.15;;;4.03;;
57858;SDS011;49153;45.568;11.894;2022-07-17T04:00:58;5.72;;;4.25;;
57858;SDS011;49153;45.568;11.894;2022-07-17T04:03:24;4.97;;;4.38;;
57858;SDS011;49153;45.568;11.894;2022-07-17T04:05:50;4.30;;;3.85;;
57858;SDS011;49153;45.568;11.894;2022-07-17T04:08:15;5.63;;;3.80;;
57858;SDS011;49153;45.568;11.894;2022-07-17T04:10:41;6.22;;;4.18;;
57858;SDS011;49153;45.568;11.894;2022-07-17T04:13:07;4.28;;;3.60;;
57858;SDS011;49153;45.568;11.894;2022-07-17T04:15:32;5.18;;;3.92;;
57858;SDS011;49153;45.568;11.894;2022-07-17T04:18:16;4.80;;;3.90;;
57858;SDS011;49153;45.568;11.894;2022-07-17T04:20:42;6.10;;;4.15;;
57858;SDS011;49153;45.568;11.894;2022-07-17T04:23:08;4.22;;;3.80;;
57858;SDS011;49153;45.568;11.894;2022-07-17T04:25:34;5.80;;;4.35;;
57858;SDS011;49153;45.568;11.894;2022-07-17T04:27:59;7.45;;;4.00;;
57858;SDS011;49153;45.568;11.894;2022-07-17T04:30:25;4.82;;;3.80;;
57858;SDS011;49153;45.568;11.894;2022-07-17T04:32:51;3.92;;;3.55;;
57858;SDS011;49153;45.568;11.894;2022-07-17T04:35:16;6.05;;;4.00;;
57858;SDS011;49153;45.568;11.894;2022-07-17T04:37:42;6.72;;;4.07;;
57858;SDS011;49153;45.568;11.894;2022-07-17T04:40:07;5.82;;;4.00;;
57858;SDS011;49153;45.568;11.894;2022-07-17T04:42:33;5.63;;;4.30;;
57858;SDS011;49153;45.568;11.894;2022-07-17T04:44:59;6.15;;;4.00;;
57858;SDS011;49153;45.568;11.894;2022-07-17T04:47:25;4.93;;;3.90;;
57858;SDS011;49153;45.568;11.894;2022-07-17T04:49:50;6.40;;;3.97;;
57858;SDS011;49153;45.568;11.894;2022-07-17T04:52:15;4.90;;;4.18;;
57858;SDS011;49153;45.568;11.894;2022-07-17T04:54:41;4.93;;;3.45;;
57858;SDS011;49153;45.568;11.894;2022-07-17T04:57:06;5.35;;;3.38;;
57858;SDS011;49153;45.568;11.894;2022-07-17T04:59:32;4.45;;;4.00;;
57858;SDS011;49153;45.568;11.894;2022-07-17T05:01:57;5.10;;;3.75;;
57858;SDS011;49153;45.568;11.894;2022-07-17T05:04:23;5.60;;;3.97;;
57858;SDS011;49153;45.568;11.894;2022-07-17T05:06:48;5.03;;;4.00;;
57858;SDS011;49153;45.568;11.894;2022-07-17T05:09:14;6.03;;;4.10;;
57858;SDS011;49153;45.568;11.894;2022-07-17T05:11:39;5.20;;;4.00;;
57858;SDS011;49153;45.568;11.894;2022-07-17T05:14:05;6.07;;;4.40;;
57858;SDS011;49153;45.568;11.894;2022-07-17T05:16:30;5.28;;;3.88;;
57858;SDS011;49153;45.568;11.894;2022-07-17T05:18:57;5.45;;;4.05;;
57858;SDS011;49153;45.568;11.894;2022-07-17T05:21:22;5.30;;;4.03;;
57858;SDS011;49153;45.568;11.894;2022-07-17T05:23:48;6.00;;;4.00;;
57858;SDS011;49153;45.568;11.894;2022-07-17T05:26:14;7.70;;;3.70;;
57858;SDS011;49153;45.568;11.894;2022-07-17T05:28:39;5.97;;;4.30;;
57858;SDS011;49153;45.568;11.894;2022-07-17T05:31:05;5.18;;;4.30;;
57858;SDS011;49153;45.568;11.894;2022-07-17T05:33:31;5.13;;;3.88;;
57858;SDS011;49153;45.568;11.894;2022-07-17T05:35:56;3.80;;;3.50;;
57858;SDS011;49153;45.568;11.894;2022-07-17T05:38:22;5.82;;;3.75;;
57858;SDS011;49153;45.568;11.894;2022-07-17T05:40:47;4.50;;;3.92;;
57858;SDS011;49153;45.568;11.894;2022-07-17T05:43:12;4.55;;;4.00;;
57858;SDS011;49153;45.568;11.894;2022-07-17T05:45:38;5.57;;;3.67;;
57858;SDS011;49153;45.568;11.894;2022-07-17T05:48:04;6.63;;;4.40;;
57858;SDS011;49153;45.568;11.894;2022-07-17T05:50:31;4.28;;;3.88;;
57858;SDS011;49153;45.568;11.894;2022-07-17T05:52:57;4.65;;;4.10;;
57858;SDS011;49153;45.568;11.894;2022-07-17T05:55:22;5.80;;;3.85;;
57858;SDS011;49153;45.568;11.894;2022-07-17T05:57:48;4.60;;;4.00;;
57858;SDS011;49153;45.568;11.894;2022-07-17T06:00:14;4.57;;;3.90;;
57858;SDS011;49153;45.568;11.894;2022-07-17T06:02:39;5.10;;;3.63;;
57858;SDS011;49153;45.568;11.894;2022-07-17T06:05:05;6.05;;;3.58;;
57858;SDS011;49153;45.568;11.894;2022-07-17T06:07:30;4.97;;;3.78;;
57858;SDS011;49153;45.568;11.894;2022-07-17T06:09:56;4.65;;;3.50;;
57858;SDS011;49153;45.568;11.894;2022-07-17T06:12:21;6.90;;;3.63;;
57858;SDS011;49153;45.568;11.894;2022-07-17T06:14:47;6.72;;;3.70;;
57858;SDS011;49153;45.568;11.894;2022-07-17T06:17:12;4.45;;;3.42;;
57858;SDS011;49153;45.568;11.894;2022-07-17T06:19:38;7.35;;;3.70;;
57858;SDS011;49153;45.568;11.894;2022-07-17T06:22:06;4.65;;;3.45;;
57858;SDS011;49153;45.568;11.894;2022-07-17T06:24:31;3.90;;;3.47;;
57858;SDS011;49153;45.568;11.894;2022-07-17T06:26:56;6.55;;;3.42;;
57858;SDS011;49153;45.568;11.894;2022-07-17T06:29:22;6.32;;;3.70;;
57858;SDS011;49153;45.568;11.894;2022-07-17T06:31:47;4.22;;;3.30;;
57858;SDS011;49153;45.568;11.894;2022-07-17T06:34:13;5.18;;;3.38;;
57858;SDS011;49153;45.568;11.894;2022-07-17T06:36:38;5.15;;;3.38;;
57858;SDS011;49153;45.568;11.894;2022-07-17T06:39:04;6.10;;;3.45;;
57858;SDS011;49153;45.568;11.894;2022-07-17T06:41:29;4.47;;;3.38;;
57858;SDS011;49153;45.568;11.894;2022-07-17T06:43:54;4.88;;;3.72;;
57858;SDS011;49153;45.568;11.894;2022-07-17T06:46:21;6.22;;;3.30;;
57858;SDS011;49153;45.568;11.894;2022-07-17T06:48:47;4.30;;;3.38;;
57858;SDS011;49153;45.568;11.894;2022-07-17T06:51:16;3.75;;;3.28;;
57858;SDS011;49153;45.568;11.894;2022-07-17T06:53:41;4.05;;;3.42;;
57858;SDS011;49153;45.568;11.894;2022-07-17T06:56:07;5.78;;;3.35;;
57858;SDS011;49153;45.568;11.894;2022-07-17T06:58:32;3.47;;;3.17;;
57858;SDS011;49153;45.568;11.894;2022-07-17T07:00:58;5.20;;;3.20;;
57858;SDS011;49153;45.568;11.894;2022-07-17T07:03:23;4.57;;;3.20;;
57858;SDS011;49153;45.568;11.894;2022-07-17T07:05:49;4.53;;;3.00;;
57858;SDS011;49153;45.568;11.894;2022-07-17T07:08:15;5.35;;;3.17;;
57858;SDS011;49153;45.568;11.894;2022-07-17T07:10:42;4.18;;;3.05;;
57858;SDS011;49153;45.568;11.894;2022-07-17T07:13:09;6.13;;;2.90;;
57858;SDS011;49153;45.568;11.894;2022-07-17T07:15:34;5.03;;;2.90;;
57858;SDS011;49153;45.568;11.894;2022-07-17T07:18:00;5.00;;;2.90;;
57858;SDS011;49153;45.568;11.894;2022-07-17T07:20:26;5.55;;;2.80;;
57858;SDS011;49153;45.568;11.894;2022-07-17T07:22:52;5.03;;;2.97;;
57858;SDS011;49153;45.568;11.894;2022-07-17T07:25:17;4.47;;;3.10;;
57858;SDS011;49153;45.568;11.894;2022-07-17T07:27:43;4.78;;;2.88;;
57858;SDS011;49153;45.568;11.894;2022-07-17T07:30:08;4.57;;;3.28;;
57858;SDS011;49153;45.568;11.894;2022-07-17T07:32:38;4.03;;;3.00;;
57858;SDS011;49153;45.568;11.894;2022-07-17T07:35:23;3.35;;;2.90;;
57858;SDS011;49153;45.568;11.894;2022-07-17T07:38:35;4.13;;;2.70;;
57858;SDS011;49153;45.568;11.894;2022-07-17T07:41:12;4.97;;;3.30;;
57858;SDS011;49153;45.568;11.894;2022-07-17T07:43:38;4.43;;;2.65;;
57858;SDS011;49153;45.568;11.894;2022-07-17T07:46:06;6.10;;;3.30;;
57858;SDS011;49153;45.568;11.894;2022-07-17T07:48:43;4.80;;;3.20;;
57858;SDS011;49153;45.568;11.894;2022-07-17T07:51:08;3.15;;;2.67;;
57858;SDS011;49153;45.568;11.894;2022-07-17T07:57:11;4.43;;;3.00;;
57858;SDS011;49153;45.568;11.894;2022-07-17T07:59:45;3.60;;;2.83;;
57858;SDS011;49153;45.568;11.894;2022-07-17T08:02:18;7.32;;;3.10;;
57858;SDS011;49153;45.568;11.894;2022-07-17T08:08:17;6.07;;;3.20;;
57858;SDS011;49153;45.568;11.894;2022-07-17T08:11:45;3.58;;;2.90;;
57858;SDS011;49153;45.568;11.894;2022-07-17T08:17:09;3.50;;;3.20;;
57858;SDS011;49153;45.568;11.894;2022-07-17T08:22:56;3.13;;;2.80;;
57858;SDS011;49153;45.568;11.894;2022-07-17T08:25:58;5.45;;;3.17;;
57858;SDS011;49153;45.568;11.894;2022-07-17T08:29:12;3.50;;;3.05;;
57858;SDS011;49153;45.568;11.894;2022-07-17T08:35:37;3.80;;;3.17;;
57858;SDS011;49153;45.568;11.894;2022-07-17T08:38:46;3.75;;;3.00;;
57858;SDS011;49153;45.568;11.894;2022-07-17T08:45:26;4.60;;;3.15;;
57858;SDS011;49153;45.568;11.894;2022-07-17T08:48:35;3.88;;;2.80;;
57858;SDS011;49153;45.568;11.894;2022-07-17T08:52:06;4.80;;;3.00;;
57858;SDS011;49153;45.568;11.894;2022-07-17T08:54:51;6.30;;;2.92;;
57858;SDS011;49153;45.568;11.894;2022-07-17T08:57:48;7.43;;;2.95;;
57858;SDS011;49153;45.568;11.894;2022-07-17T09:00:53;3.15;;;2.88;;
57858;SDS011;49153;45.568;11.894;2022-07-17T09:06:57;3.17;;;2.60;;
57858;SDS011;49153;45.568;11.894;2022-07-17T09:09:54;3.58;;;2.70;;
57858;SDS011;49153;45.568;11.894;2022-07-17T09:12:48;5.93;;;3.10;;
57858;SDS011;49153;45.568;11.894;2022-07-17T09:15:45;3.13;;;2.80;;
57858;SDS011;49153;45.568;11.894;2022-07-17T09:21:35;3.78;;;3.00;;
57858;SDS011;49153;45.568;11.894;2022-07-17T09:24:51;3.90;;;2.85;;
57858;SDS011;49153;45.568;11.894;2022-07-17T09:27:39;5.25;;;2.80;;
57858;SDS011;49153;45.568;11.894;2022-07-17T09:30:54;4.03;;;2.60;;
57858;SDS011;49153;45.568;11.894;2022-07-17T09:33:57;4.07;;;2.90;;
57858;SDS011;49153;45.568;11.894;2022-07-17T09:36:23;3.85;;;2.63;;
57858;SDS011;49153;45.568;11.894;2022-07-17T09:38:53;5.75;;;2.83;;
57858;SDS011;49153;45.568;11.894;2022-07-17T09:41:23;4.70;;;2.83;;
57858;SDS011;49153;45.568;11.894;2022-07-17T09:43:54;3.20;;;2.70;;
57858;SDS011;49153;45.568;11.894;2022-07-17T09:46:32;3.60;;;2.70;;
57858;SDS011;49153;45.568;11.894;2022-07-17T09:49:03;4.10;;;2.80;;
57858;SDS011;49153;45.568;11.894;2022-07-17T09:51:30;4.18;;;2.88;;
57858;SDS011;49153;45.568;11.894;2022-07-17T09:53:58;4.57;;;3.08;;
57858;SDS011;49153;45.568;11.894;2022-07-17T09:56:27;3.38;;;2.70;;
57858;SDS011;49153;45.568;11.894;2022-07-17T09:59:03;4.78;;;2.90;;
57858;SDS011;49153;45.568;11.894;2022-07-17T10:01:30;2.90;;;2.60;;
57858;SDS011;49153;45.568;11.894;2022-07-17T10:03:57;6.50;;;4.90;;
57858;SDS011;49153;45.568;11.894;2022-07-17T10:06:24;4.03;;;3.10;;
57858;SDS011;49153;45.568;11.894;2022-07-17T10:08:50;3.38;;;3.00;;
57858;SDS011;49153;45.568;11.894;2022-07-17T10:11:18;3.15;;;2.90;;
57858;SDS011;49153;45.568;11.894;2022-07-17T10:13:47;3.53;;;3.22;;
57858;SDS011;49153;45.568;11.894;2022-07-17T10:16:22;3.72;;;2.95;;
57858;SDS011;49153;45.568;11.894;2022-07-17T10:18:49;4.97;;;2.58;;
57858;SDS011;49153;45.568;11.894;2022-07-17T10:21:18;3.45;;;2.65;;
57858;SDS011;49153;45.568;11.894;2022-07-17T10:23:48;3.67;;;3.17;;
57858;SDS011;49153;45.568;11.894;2022-07-17T10:26:38;3.30;;;3.00;;
57858;SDS011;49153;45.568;11.894;2022-07-17T10:31:54;3.60;;;2.83;;
57858;SDS011;49153;45.568;11.894;2022-07-17T10:37:18;3.10;;;2.80;;
57858;SDS011;49153;45.568;11.894;2022-07-17T10:39:57;3.58;;;2.75;;
57858;SDS011;49153;45.568;11.894;2022-07-17T10:42:39;4.15;;;2.92;;
57858;SDS011;49153;45.568;11.894;2022-07-17T10:50:23;4.63;;;3.05;;
57858;SDS011;49153;45.568;11.894;2022-07-17T10:55:34;3.00;;;2.80;;
57858;SDS011;49153;45.568;11.894;2022-07-17T10:58:13;3.22;;;2.80;;
57858;SDS011;49153;45.568;11.894;2022-07-17T11:00:39;3.45;;;2.60;;
57858;SDS011;49153;45.568;11.894;2022-07-17T11:03:08;3.40;;;2.80;;
57858;SDS011;49153;45.568;11.894;2022-07-17T11:05:35;4.68;;;3.05;;
57858;SDS011;49153;45.568;11.894;2022-07-17T11:08:00;3.20;;;2.90;;
57858;SDS011;49153;45.568;11.894;2022-07-17T11:10:27;5.25;;;3.00;;
57858;SDS011;49153;45.568;11.894;2022-07-17T11:12:54;2.80;;;2.60;;
57858;SDS011;49153;45.568;11.894;2022-07-17T11:15:20;3.72;;;2.65;;
57858;SDS011;49153;45.568;11.894;2022-07-17T11:17:47;4.13;;;3.10;;
57858;SDS011;49153;45.568;11.894;2022-07-17T11:20:14;3.30;;;2.63;;
57858;SDS011;49153;45.568;11.894;2022-07-17T11:22:40;4.53;;;3.10;;
57858;SDS011;49153;45.568;11.894;2022-07-17T11:25:07;3.20;;;2.90;;
57858;SDS011;49153;45.568;11.894;2022-07-17T11:27:34;3.63;;;3.22;;
57858;SDS011;49153;45.568;11.894;2022-07-17T11:30:00;3.40;;;3.10;;
57858;SDS011;49153;45.568;11.894;2022-07-17T11:32:35;4.97;;;3.20;;
57858;SDS011;49153;45.568;11.894;2022-07-17T11:35:02;3.67;;;2.90;;
57858;SDS011;49153;45.568;11.894;2022-07-17T11:37:38;3.22;;;2.88;;
57858;SDS011;49153;45.568;11.894;2022-07-17T11:40:04;5.20;;;2.83;;
57858;SDS011;49153;45.568;11.894;2022-07-17T11:42:30;3.20;;;2.53;;
57858;SDS011;49153;45.568;11.894;2022-07-17T11:44:55;4.22;;;2.70;;
57858;SDS011;49153;45.568;11.894;2022-07-17T11:47:23;4.05;;;2.88;;
57858;SDS011;49153;45.568;11.894;2022-07-17T11:49:51;7.22;;;2.80;;
57858;SDS011;49153;45.568;11.894;2022-07-17T11:52:18;3.47;;;2.85;;
57858;SDS011;49153;45.568;11.894;2022-07-17T11:57:12;3.50;;;3.20;;
57858;SDS011;49153;45.568;11.894;2022-07-17T11:59:38;3.45;;;3.03;;
57858;SDS011;49153;45.568;11.894;2022-07-17T12:07:00;4.07;;;2.90;;
57858;SDS011;49153;45.568;11.894;2022-07-17T12:09:27;3.22;;;2.90;;
57858;SDS011;49153;45.568;11.894;2022-07-17T12:11:53;3.10;;;2.80;;
57858;SDS011;49153;45.568;11.894;2022-07-17T12:14:18;4.13;;;2.88;;
57858;SDS011;49153;45.568;11.894;2022-07-17T12:16:44;2.72;;;2.40;;
57858;SDS011;49153;45.568;11.894;2022-07-17T12:22:00;3.22;;;2.70;;
57858;SDS011;49153;45.568;11.894;2022-07-17T12:24:28;5.13;;;2.85;;
57858;SDS011;49153;45.568;11.894;2022-07-17T12:27:04;6.20;;;3.67;;
57858;SDS011;49153;45.568;11.894;2022-07-17T12:29:31;3.85;;;3.10;;
57858;SDS011;49153;45.568;11.894;2022-07-17T12:34:26;3.30;;;3.00;;
57858;SDS011;49153;45.568;11.894;2022-07-17T12:36:52;2.92;;;2.70;;
57858;SDS011;49153;45.568;11.894;2022-07-17T12:39:17;3.22;;;2.60;;
57858;SDS011;49153;45.568;11.894;2022-07-17T12:41:43;3.00;;;2.70;;
57858;SDS011;49153;45.568;11.894;2022-07-17T12:44:09;3.63;;;2.70;;
57858;SDS011;49153;45.568;11.894;2022-07-17T12:46:35;3.20;;;2.90;;
57858;SDS011;49153;45.568;11.894;2022-07-17T12:49:00;2.92;;;2.65;;
57858;SDS011;49153;45.568;11.894;2022-07-17T12:51:26;4.32;;;2.95;;
57858;SDS011;49153;45.568;11.894;2022-07-17T12:53:51;3.30;;;2.80;;
57858;SDS011;49153;45.568;11.894;2022-07-17T12:56:17;3.45;;;2.97;;
57858;SDS011;49153;45.568;11.894;2022-07-17T12:58:42;3.03;;;2.63;;
57858;SDS011;49153;45.568;11.894;2022-07-17T13:01:08;4.95;;;2.90;;
57858;SDS011;49153;45.568;11.894;2022-07-17T13:03:33;4.85;;;2.53;;
57858;SDS011;49153;45.568;11.894;2022-07-17T13:05:59;3.10;;;2.80;;
57858;SDS011;49153;45.568;11.894;2022-07-17T13:08:25;4.15;;;2.80;;
57858;SDS011;49153;45.568;11.894;2022-07-17T13:10:52;3.60;;;2.80;;
57858;SDS011;49153;45.568;11.894;2022-07-17T13:13:18;3.47;;;3.00;;
57858;SDS011;49153;45.568;11.894;2022-07-17T13:15:43;6.90;;;3.20;;
57858;SDS011;49153;45.568;11.894;2022-07-17T13:18:09;4.28;;;3.03;;
57858;SDS011;49153;45.568;11.894;2022-07-17T13:20:34;3.80;;;2.90;;
57858;SDS011;49153;45.568;11.894;2022-07-17T13:22:59;5.03;;;2.72;;
57858;SDS011;49153;45.568;11.894;2022-07-17T13:25:25;3.28;;;2.65;;
57858;SDS011;49153;45.568;11.894;2022-07-17T13:27:51;3.20;;;2.90;;
57858;SDS011;49153;45.568;11.894;2022-07-17T13:30:16;3.40;;;2.60;;
57858;SDS011;49153;45.568;11.894;2022-07-17T13:32:41;3.47;;;2.85;;
57858;SDS011;49153;45.568;11.894;2022-07-17T13:35:07;4.07;;;3.10;;
57858;SDS011;49153;45.568;11.894;2022-07-17T13:37:33;3.35;;;2.75;;
57858;SDS011;49153;45.568;11.894;2022-07-17T13:39:58;3.47;;;2.90;;
57858;SDS011;49153;45.568;11.894;2022-07-17T13:42:24;2.60;;;2.40;;
57858;SDS011;49153;45.568;11.894;2022-07-17T13:44:49;3.88;;;2.90;;
57858;SDS011;49153;45.568;11.894;2022-07-17T13:47:15;5.55;;;2.80;;
57858;SDS011;49153;45.568;11.894;2022-07-17T13:49:40;3.10;;;2.80;;
57858;SDS011;49153;45.568;11.894;2022-07-17T13:52:06;3.25;;;2.95;;
57858;SDS011;49153;45.568;11.894;2022-07-17T13:54:31;3.10;;;2.90;;
57858;SDS011;49153;45.568;11.894;2022-07-17T13:56:57;3.30;;;3.00;;
57858;SDS011;49153;45.568;11.894;2022-07-17T13:59:25;3.72;;;2.80;;
57858;SDS011;49153;45.568;11.894;2022-07-17T14:01:51;2.80;;;2.50;;
57858;SDS011;49153;45.568;11.894;2022-07-17T14:04:16;3.72;;;2.72;;
57858;SDS011;49153;45.568;11.894;2022-07-17T14:06:41;3.67;;;2.70;;
57858;SDS011;49153;45.568;11.894;2022-07-17T14:09:07;5.03;;;2.80;;
57858;SDS011;49153;45.568;11.894;2022-07-17T14:11:33;2.90;;;2.35;;
57858;SDS011;49153;45.568;11.894;2022-07-17T14:14:00;4.65;;;2.83;;
57858;SDS011;49153;45.568;11.894;2022-07-17T14:16:26;2.83;;;2.42;;
57858;SDS011;49153;45.568;11.894;2022-07-17T14:18:51;3.72;;;2.35;;
57858;SDS011;49153;45.568;11.894;2022-07-17T14:21:23;2.95;;;2.33;;
57858;SDS011;49153;45.568;11.894;2022-07-17T14:23:49;3.83;;;2.58;;
57858;SDS011;49153;45.568;11.894;2022-07-17T14:26:15;4.03;;;2.55;;
57858;SDS011;49153;45.568;11.894;2022-07-17T14:28:40;3.53;;;2.60;;
57858;SDS011;49153;45.568;11.894;2022-07-17T14:31:06;3.70;;;2.45;;
57858;SDS011;49153;45.568;11.894;2022-07-17T14:33:31;3.85;;;2.40;;
57858;SDS011;49153;45.568;11.894;2022-07-17T14:35:56;8.93;;;3.00;;
57858;SDS011;49153;45.568;11.894;2022-07-17T14:38:22;3.88;;;2.50;;
57858;SDS011;49153;45.568;11.894;2022-07-17T14:40:47;4.93;;;2.67;;
57858;SDS011;49153;45.568;11.894;2022-07-17T14:43:13;5.63;;;2.75;;
57858;SDS011;49153;45.568;11.894;2022-07-17T14:45:38;4.07;;;2.60;;
57858;SDS011;49153;45.568;11.894;2022-07-17T14:48:04;4.07;;;2.65;;
57858;SDS011;49153;45.568;11.894;2022-07-17T14:50:30;3.65;;;2.42;;
57858;SDS011;49153;45.568;11.894;2022-07-17T14:52:56;4.25;;;2.55;;
57858;SDS011;49153;45.568;11.894;2022-07-17T14:55:21;3.53;;;2.80;;
57858;SDS011;49153;45.568;11.894;2022-07-17T14:57:47;4.18;;;2.80;;
57858;SDS011;49153;45.568;11.894;2022-07-17T15:00:12;3.67;;;2.80;;
57858;SDS011;49153;45.568;11.894;2022-07-17T15:02:39;3.20;;;2.83;;
57858;SDS011;49153;45.568;11.894;2022-07-17T15:05:06;5.30;;;2.63;;
57858;SDS011;49153;45.568;11.894;2022-07-17T15:07:32;3.42;;;2.70;;
57858;SDS011;49153;45.568;11.894;2022-07-17T15:09:58;3.97;;;2.85;;
57858;SDS011;49153;45.568;11.894;2022-07-17T15:12:23;4.38;;;2.90;;
57858;SDS011;49153;45.568;11.894;2022-07-17T15:14:49;4.60;;;3.08;;
57858;SDS011;49153;45.568;11.894;2022-07-17T15:17:15;5.32;;;3.10;;
57858;SDS011;49153;45.568;11.894;2022-07-17T15:19:40;4.82;;;2.90;;
57858;SDS011;49153;45.568;11.894;2022-07-17T15:22:05;3.30;;;3.00;;
57858;SDS011;49153;45.568;11.894;2022-07-17T15:24:31;3.13;;;2.80;;
57858;SDS011;49153;45.568;11.894;2022-07-17T15:26:56;3.58;;;3.15;;
57858;SDS011;49153;45.568;11.894;2022-07-17T15:29:22;3.55;;;2.70;;
57858;SDS011;49153;45.568;11.894;2022-07-17T15:31:47;3.70;;;3.35;;
57858;SDS011;49153;45.568;11.894;2022-07-17T15:34:13;4.22;;;3.17;;
57858;SDS011;49153;45.568;11.894;2022-07-17T15:36:38;6.45;;;3.30;;
57858;SDS011;49153;45.568;11.894;2022-07-17T15:39:04;4.68;;;3.35;;